Mount Selman, Texas
Current Conditions -  °F | °C
As of 1:53 PM on Wednesday 28 Jan 2015 (Local Time) from KTYR Reporting Station
Clear Clear  
Wind Chill: 77°   Ceiling: Unl
Heat Index: 78°   Visibility: 10mi
Dew Point: 45°   Wind: 18mph
Humidity: 32%   Direction: 180°S
Pressure: 30.07"   Gusts: NA
Location:  32.1219°N, 95.3574°W
Report Text: KTYR 281953Z 18016KT 10SM CLR 25/07 A3007 RMK AO2 SLP179 T02500072
Loading
Personal Weather Stations






























Interactive Weather Map New forecast layout! Learn more

10-Day Weather Forecast

Advertisements
Track Severe Weather on mobile